sensor_id;sensor_type;location;lat;lon;timestamp;P1;durP1;ratioP1;P2;durP2;ratioP2
76204;SDS011;64986;55.672;37.628;2022-12-05T00:02:09;17.92;;;7.45;;
76204;SDS011;64986;55.672;37.628;2022-12-05T00:04:34;16.08;;;7.43;;
76204;SDS011;64986;55.672;37.628;2022-12-05T00:07:00;18.77;;;6.95;;
76204;SDS011;64986;55.672;37.628;2022-12-05T00:09:25;12.43;;;5.97;;
76204;SDS011;64986;55.672;37.628;2022-12-05T00:11:51;16.25;;;6.18;;
76204;SDS011;64986;55.672;37.628;2022-12-05T00:14:17;14.00;;;6.80;;
76204;SDS011;64986;55.672;37.628;2022-12-05T00:16:42;16.15;;;7.00;;
76204;SDS011;64986;55.672;37.628;2022-12-05T00:19:10;13.73;;;6.38;;
76204;SDS011;64986;55.672;37.628;2022-12-05T00:21:38;19.38;;;7.00;;
76204;SDS011;64986;55.672;37.628;2022-12-05T00:24:05;12.98;;;6.53;;
76204;SDS011;64986;55.672;37.628;2022-12-05T00:26:32;12.63;;;6.15;;
76204;SDS011;64986;55.672;37.628;2022-12-05T00:28:58;13.20;;;6.07;;
76204;SDS011;64986;55.672;37.628;2022-12-05T00:31:24;16.17;;;6.28;;
76204;SDS011;64986;55.672;37.628;2022-12-05T00:33:50;16.33;;;6.95;;
76204;SDS011;64986;55.672;37.628;2022-12-05T00:36:27;21.35;;;7.13;;
76204;SDS011;64986;55.672;37.628;2022-12-05T00:38:54;15.50;;;6.55;;
76204;SDS011;64986;55.672;37.628;2022-12-05T00:41:24;8.75;;;4.15;;
76204;SDS011;64986;55.672;37.628;2022-12-05T00:43:51;11.75;;;4.15;;
76204;SDS011;64986;55.672;37.628;2022-12-05T00:46:21;12.18;;;5.25;;
76204;SDS011;64986;55.672;37.628;2022-12-05T00:48:48;10.20;;;5.00;;
76204;SDS011;64986;55.672;37.628;2022-12-05T00:51:36;9.52;;;4.68;;
76204;SDS011;64986;55.672;37.628;2022-12-05T00:54:03;11.68;;;5.70;;
76204;SDS011;64986;55.672;37.628;2022-12-05T00:56:31;15.20;;;5.75;;
76204;SDS011;64986;55.672;37.628;2022-12-05T00:58:58;15.25;;;6.18;;
76204;SDS011;64986;55.672;37.628;2022-12-05T01:03:52;13.98;;;5.30;;
76204;SDS011;64986;55.672;37.628;2022-12-05T01:06:20;9.52;;;4.97;;
76204;SDS011;64986;55.672;37.628;2022-12-05T01:08:47;16.15;;;6.72;;
76204;SDS011;64986;55.672;37.628;2022-12-05T01:11:16;15.82;;;5.75;;
76204;SDS011;64986;55.672;37.628;2022-12-05T01:13:43;16.23;;;7.72;;
76204;SDS011;64986;55.672;37.628;2022-12-05T01:16:14;14.10;;;5.25;;
76204;SDS011;64986;55.672;37.628;2022-12-05T01:18:53;18.85;;;6.22;;
76204;SDS011;64986;55.672;37.628;2022-12-05T01:21:20;11.38;;;5.10;;
76204;SDS011;64986;55.672;37.628;2022-12-05T01:23:45;18.85;;;7.55;;
76204;SDS011;64986;55.672;37.628;2022-12-05T01:26:12;14.77;;;6.43;;
76204;SDS011;64986;55.672;37.628;2022-12-05T01:28:39;20.17;;;6.55;;
76204;SDS011;64986;55.672;37.628;2022-12-05T01:31:06;14.77;;;5.80;;
76204;SDS011;64986;55.672;37.628;2022-12-05T01:33:34;14.27;;;6.00;;
76204;SDS011;64986;55.672;37.628;2022-12-05T01:36:01;12.85;;;6.25;;
76204;SDS011;64986;55.672;37.628;2022-12-05T01:38:27;13.48;;;6.35;;
76204;SDS011;64986;55.672;37.628;2022-12-05T01:41:02;13.05;;;5.47;;
76204;SDS011;64986;55.672;37.628;2022-12-05T01:43:29;14.93;;;6.07;;
76204;SDS011;64986;55.672;37.628;2022-12-05T01:45:55;10.05;;;4.30;;
76204;SDS011;64986;55.672;37.628;2022-12-05T01:48:24;13.63;;;6.25;;
76204;SDS011;64986;55.672;37.628;2022-12-05T01:50:56;11.90;;;5.32;;
76204;SDS011;64986;55.672;37.628;2022-12-05T01:53:23;16.08;;;6.22;;
76204;SDS011;64986;55.672;37.628;2022-12-05T01:55:50;10.48;;;4.25;;
76204;SDS011;64986;55.672;37.628;2022-12-05T01:58:17;14.30;;;6.20;;
76204;SDS011;64986;55.672;37.628;2022-12-05T02:00:43;14.73;;;6.38;;
76204;SDS011;64986;55.672;37.628;2022-12-05T02:03:11;18.75;;;6.47;;
76204;SDS011;64986;55.672;37.628;2022-12-05T02:05:41;15.50;;;6.68;;
76204;SDS011;64986;55.672;37.628;2022-12-05T02:08:08;16.65;;;7.13;;
76204;SDS011;64986;55.672;37.628;2022-12-05T02:10:38;20.42;;;6.60;;
76204;SDS011;64986;55.672;37.628;2022-12-05T02:13:10;13.32;;;6.25;;
76204;SDS011;64986;55.672;37.628;2022-12-05T02:15:42;14.03;;;5.87;;
76204;SDS011;64986;55.672;37.628;2022-12-05T02:34:17;14.30;;;5.50;;
76204;SDS011;64986;55.672;37.628;2022-12-05T02:45:00;15.98;;;5.93;;
76204;SDS011;64986;55.672;37.628;2022-12-05T02:47:32;17.85;;;5.82;;
76204;SDS011;64986;55.672;37.628;2022-12-05T02:50:02;15.88;;;5.50;;
76204;SDS011;64986;55.672;37.628;2022-12-05T02:52:29;13.05;;;6.00;;
76204;SDS011;64986;55.672;37.628;2022-12-05T02:54:56;12.98;;;6.47;;
76204;SDS011;64986;55.672;37.628;2022-12-05T02:57:23;13.98;;;4.97;;
76204;SDS011;64986;55.672;37.628;2022-12-05T02:59:49;11.50;;;5.38;;
76204;SDS011;64986;55.672;37.628;2022-12-05T03:02:31;10.95;;;4.90;;
76204;SDS011;64986;55.672;37.628;2022-12-05T03:07:43;9.50;;;5.25;;
76204;SDS011;64986;55.672;37.628;2022-12-05T03:10:13;9.57;;;4.13;;
76204;SDS011;64986;55.672;37.628;2022-12-05T03:12:43;14.25;;;5.68;;
76204;SDS011;64986;55.672;37.628;2022-12-05T03:15:20;8.40;;;4.20;;
76204;SDS011;64986;55.672;37.628;2022-12-05T03:17:53;15.52;;;5.43;;
76204;SDS011;64986;55.672;37.628;2022-12-05T03:20:47;13.50;;;5.93;;
76204;SDS011;64986;55.672;37.628;2022-12-05T03:23:53;13.07;;;6.47;;
76204;SDS011;64986;55.672;37.628;2022-12-05T03:32:07;15.50;;;7.18;;
76204;SDS011;64986;55.672;37.628;2022-12-05T03:37:19;12.55;;;4.53;;
76204;SDS011;64986;55.672;37.628;2022-12-05T03:39:53;12.85;;;4.68;;
76204;SDS011;64986;55.672;37.628;2022-12-05T03:42:31;13.68;;;6.13;;
76204;SDS011;64986;55.672;37.628;2022-12-05T03:44:59;15.18;;;5.65;;
76204;SDS011;64986;55.672;37.628;2022-12-05T03:47:51;14.57;;;5.82;;
76204;SDS011;64986;55.672;37.628;2022-12-05T03:50:26;13.77;;;5.70;;
76204;SDS011;64986;55.672;37.628;2022-12-05T03:52:53;13.63;;;4.28;;
76204;SDS011;64986;55.672;37.628;2022-12-05T03:55:24;20.05;;;5.40;;
76204;SDS011;64986;55.672;37.628;2022-12-05T04:00:58;12.70;;;5.28;;
76204;SDS011;64986;55.672;37.628;2022-12-05T04:03:30;14.98;;;7.25;;
76204;SDS011;64986;55.672;37.628;2022-12-05T04:06:05;13.05;;;4.75;;
76204;SDS011;64986;55.672;37.628;2022-12-05T04:08:52;16.05;;;7.05;;
76204;SDS011;64986;55.672;37.628;2022-12-05T04:11:23;16.42;;;6.95;;
76204;SDS011;64986;55.672;37.628;2022-12-05T04:13:55;15.52;;;5.88;;
76204;SDS011;64986;55.672;37.628;2022-12-05T04:16:28;15.70;;;4.97;;
76204;SDS011;64986;55.672;37.628;2022-12-05T04:19:26;11.98;;;5.20;;
76204;SDS011;64986;55.672;37.628;2022-12-05T04:22:17;13.43;;;5.65;;
76204;SDS011;64986;55.672;37.628;2022-12-05T04:24:44;8.65;;;4.22;;
76204;SDS011;64986;55.672;37.628;2022-12-05T04:30:18;13.75;;;5.65;;
76204;SDS011;64986;55.672;37.628;2022-12-05T04:33:04;13.10;;;5.82;;
76204;SDS011;64986;55.672;37.628;2022-12-05T04:35:36;10.63;;;4.55;;
76204;SDS011;64986;55.672;37.628;2022-12-05T04:38:20;11.98;;;4.32;;
76204;SDS011;64986;55.672;37.628;2022-12-05T04:43:17;16.70;;;5.60;;
76204;SDS011;64986;55.672;37.628;2022-12-05T04:45:44;17.95;;;6.03;;
76204;SDS011;64986;55.672;37.628;2022-12-05T04:48:13;9.30;;;4.15;;
76204;SDS011;64986;55.672;37.628;2022-12-05T04:50:41;13.68;;;5.53;;
76204;SDS011;64986;55.672;37.628;2022-12-05T04:53:09;10.25;;;4.60;;
76204;SDS011;64986;55.672;37.628;2022-12-05T04:55:38;10.70;;;5.35;;
76204;SDS011;64986;55.672;37.628;2022-12-05T04:58:10;14.60;;;6.55;;
76204;SDS011;64986;55.672;37.628;2022-12-05T05:00:43;17.55;;;6.43;;
76204;SDS011;64986;55.672;37.628;2022-12-05T05:03:23;14.23;;;5.30;;
76204;SDS011;64986;55.672;37.628;2022-12-05T05:06:00;15.82;;;7.22;;
76204;SDS011;64986;55.672;37.628;2022-12-05T05:08:26;12.95;;;5.57;;
76204;SDS011;64986;55.672;37.628;2022-12-05T05:13:25;15.88;;;5.30;;
76204;SDS011;64986;55.672;37.628;2022-12-05T05:15:51;16.02;;;6.95;;
76204;SDS011;64986;55.672;37.628;2022-12-05T05:18:16;13.32;;;5.45;;
76204;SDS011;64986;55.672;37.628;2022-12-05T05:20:42;10.63;;;5.07;;
76204;SDS011;64986;55.672;37.628;2022-12-05T05:23:07;9.02;;;4.22;;
76204;SDS011;64986;55.672;37.628;2022-12-05T05:25:33;11.38;;;3.80;;
76204;SDS011;64986;55.672;37.628;2022-12-05T05:27:58;5.72;;;3.13;;
76204;SDS011;64986;55.672;37.628;2022-12-05T05:30:24;15.95;;;6.05;;
76204;SDS011;64986;55.672;37.628;2022-12-05T05:32:49;12.90;;;4.10;;
76204;SDS011;64986;55.672;37.628;2022-12-05T05:35:15;12.93;;;4.57;;
76204;SDS011;64986;55.672;37.628;2022-12-05T05:37:41;15.65;;;5.45;;
76204;SDS011;64986;55.672;37.628;2022-12-05T05:40:08;7.35;;;3.90;;
76204;SDS011;64986;55.672;37.628;2022-12-05T05:42:35;7.82;;;3.25;;
76204;SDS011;64986;55.672;37.628;2022-12-05T05:45:00;14.32;;;5.28;;
76204;SDS011;64986;55.672;37.628;2022-12-05T05:47:26;6.50;;;3.80;;
76204;SDS011;64986;55.672;37.628;2022-12-05T05:49:51;10.93;;;4.78;;
76204;SDS011;64986;55.672;37.628;2022-12-05T05:52:18;13.20;;;5.93;;
76204;SDS011;64986;55.672;37.628;2022-12-05T05:54:44;18.00;;;6.40;;
76204;SDS011;64986;55.672;37.628;2022-12-05T05:57:09;10.80;;;5.00;;
76204;SDS011;64986;55.672;37.628;2022-12-05T05:59:34;10.45;;;4.88;;
76204;SDS011;64986;55.672;37.628;2022-12-05T06:02:00;11.88;;;6.15;;
76204;SDS011;64986;55.672;37.628;2022-12-05T06:04:25;18.20;;;6.25;;
76204;SDS011;64986;55.672;37.628;2022-12-05T06:06:51;17.40;;;6.15;;
76204;SDS011;64986;55.672;37.628;2022-12-05T06:09:16;16.40;;;5.55;;
76204;SDS011;64986;55.672;37.628;2022-12-05T06:11:42;11.68;;;5.50;;
76204;SDS011;64986;55.672;37.628;2022-12-05T06:14:07;12.43;;;5.15;;
76204;SDS011;64986;55.672;37.628;2022-12-05T06:16:33;14.15;;;5.72;;
76204;SDS011;64986;55.672;37.628;2022-12-05T06:18:59;12.20;;;5.45;;
76204;SDS011;64986;55.672;37.628;2022-12-05T06:21:24;10.88;;;4.95;;
76204;SDS011;64986;55.672;37.628;2022-12-05T06:23:50;15.38;;;5.53;;
76204;SDS011;64986;55.672;37.628;2022-12-05T06:26:17;9.73;;;4.85;;
76204;SDS011;64986;55.672;37.628;2022-12-05T06:28:44;14.82;;;5.95;;
76204;SDS011;64986;55.672;37.628;2022-12-05T06:31:12;10.43;;;4.72;;
76204;SDS011;64986;55.672;37.628;2022-12-05T06:33:42;12.82;;;4.20;;
76204;SDS011;64986;55.672;37.628;2022-12-05T06:36:12;14.20;;;5.18;;
76204;SDS011;64986;55.672;37.628;2022-12-05T06:38:39;10.70;;;4.43;;
76204;SDS011;64986;55.672;37.628;2022-12-05T06:41:06;10.88;;;4.60;;
76204;SDS011;64986;55.672;37.628;2022-12-05T06:43:33;17.55;;;6.60;;
76204;SDS011;64986;55.672;37.628;2022-12-05T06:45:59;12.93;;;4.55;;
76204;SDS011;64986;55.672;37.628;2022-12-05T06:48:28;14.50;;;6.28;;
76204;SDS011;64986;55.672;37.628;2022-12-05T06:50:53;10.77;;;4.72;;
76204;SDS011;64986;55.672;37.628;2022-12-05T06:53:19;14.50;;;6.70;;
76204;SDS011;64986;55.672;37.628;2022-12-05T06:55:54;15.45;;;6.55;;
76204;SDS011;64986;55.672;37.628;2022-12-05T06:58:26;6.55;;;3.90;;
76204;SDS011;64986;55.672;37.628;2022-12-05T07:00:52;14.77;;;5.97;;
76204;SDS011;64986;55.672;37.628;2022-12-05T07:03:37;11.85;;;5.25;;
76204;SDS011;64986;55.672;37.628;2022-12-05T07:06:03;7.55;;;3.03;;
76204;SDS011;64986;55.672;37.628;2022-12-05T07:08:30;10.02;;;5.35;;
76204;SDS011;64986;55.672;37.628;2022-12-05T07:10:56;15.45;;;5.22;;
76204;SDS011;64986;55.672;37.628;2022-12-05T07:13:25;9.50;;;4.03;;
76204;SDS011;64986;55.672;37.628;2022-12-05T07:15:50;8.57;;;3.70;;
76204;SDS011;64986;55.672;37.628;2022-12-05T07:18:16;11.95;;;4.18;;
76204;SDS011;64986;55.672;37.628;2022-12-05T07:20:42;11.25;;;4.50;;
76204;SDS011;64986;55.672;37.628;2022-12-05T07:23:08;8.10;;;4.30;;
76204;SDS011;64986;55.672;37.628;2022-12-05T07:25:37;5.85;;;2.53;;
76204;SDS011;64986;55.672;37.628;2022-12-05T07:28:04;9.35;;;3.88;;
76204;SDS011;64986;55.672;37.628;2022-12-05T07:30:30;13.55;;;4.78;;
76204;SDS011;64986;55.672;37.628;2022-12-05T07:32:55;10.55;;;4.40;;
76204;SDS011;64986;55.672;37.628;2022-12-05T07:35:21;8.57;;;3.33;;
76204;SDS011;64986;55.672;37.628;2022-12-05T07:37:46;8.52;;;3.33;;
76204;SDS011;64986;55.672;37.628;2022-12-05T07:40:12;8.93;;;3.92;;
76204;SDS011;64986;55.672;37.628;2022-12-05T07:42:38;5.55;;;2.00;;
76204;SDS011;64986;55.672;37.628;2022-12-05T07:45:03;6.55;;;3.47;;
76204;SDS011;64986;55.672;37.628;2022-12-05T07:47:29;8.68;;;4.22;;
76204;SDS011;64986;55.672;37.628;2022-12-05T07:49:55;5.32;;;2.28;;
76204;SDS011;64986;55.672;37.628;2022-12-05T07:52:20;10.07;;;4.85;;
76204;SDS011;64986;55.672;37.628;2022-12-05T07:54:46;8.00;;;4.13;;
76204;SDS011;64986;55.672;37.628;2022-12-05T07:57:11;6.63;;;2.53;;
76204;SDS011;64986;55.672;37.628;2022-12-05T07:59:37;8.05;;;3.08;;
76204;SDS011;64986;55.672;37.628;2022-12-05T08:02:02;10.50;;;4.25;;
76204;SDS011;64986;55.672;37.628;2022-12-05T08:04:28;6.45;;;3.08;;
76204;SDS011;64986;55.672;37.628;2022-12-05T08:06:53;9.82;;;3.85;;
76204;SDS011;64986;55.672;37.628;2022-12-05T08:09:19;12.88;;;4.80;;
76204;SDS011;64986;55.672;37.628;2022-12-05T08:11:44;5.32;;;2.85;;
76204;SDS011;64986;55.672;37.628;2022-12-05T08:14:10;10.68;;;4.18;;
76204;SDS011;64986;55.672;37.628;2022-12-05T08:16:35;8.65;;;4.10;;
76204;SDS011;64986;55.672;37.628;2022-12-05T08:19:02;7.05;;;3.67;;
76204;SDS011;64986;55.672;37.628;2022-12-05T08:21:29;5.63;;;2.65;;
76204;SDS011;64986;55.672;37.628;2022-12-05T08:23:55;8.18;;;3.75;;
76204;SDS011;64986;55.672;37.628;2022-12-05T08:26:22;9.57;;;3.42;;
76204;SDS011;64986;55.672;37.628;2022-12-05T08:28:50;12.50;;;4.57;;
76204;SDS011;64986;55.672;37.628;2022-12-05T08:31:42;10.05;;;4.53;;
76204;SDS011;64986;55.672;37.628;2022-12-05T08:34:13;9.18;;;4.13;;
76204;SDS011;64986;55.672;37.628;2022-12-05T08:36:41;15.25;;;6.30;;
76204;SDS011;64986;55.672;37.628;2022-12-05T08:39:07;22.00;;;8.15;;
76204;SDS011;64986;55.672;37.628;2022-12-05T08:41:38;10.93;;;3.95;;
76204;SDS011;64986;55.672;37.628;2022-12-05T08:44:04;20.35;;;6.95;;
76204;SDS011;64986;55.672;37.628;2022-12-05T08:46:32;17.23;;;8.05;;
76204;SDS011;64986;55.672;37.628;2022-12-05T08:49:00;16.15;;;5.25;;
76204;SDS011;64986;55.672;37.628;2022-12-05T08:51:26;19.83;;;7.97;;
76204;SDS011;64986;55.672;37.628;2022-12-05T08:53:52;18.85;;;8.18;;
76204;SDS011;64986;55.672;37.628;2022-12-05T08:56:17;13.02;;;7.28;;
76204;SDS011;64986;55.672;37.628;2022-12-05T08:58:43;21.10;;;8.43;;
76204;SDS011;64986;55.672;37.628;2022-12-05T09:01:18;15.48;;;6.63;;
76204;SDS011;64986;55.672;37.628;2022-12-05T09:03:47;17.70;;;7.43;;
76204;SDS011;64986;55.672;37.628;2022-12-05T09:06:20;12.77;;;4.35;;
76204;SDS011;64986;55.672;37.628;2022-12-05T09:08:47;14.73;;;7.18;;
76204;SDS011;64986;55.672;37.628;2022-12-05T09:11:15;17.17;;;6.85;;
76204;SDS011;64986;55.672;37.628;2022-12-05T09:13:43;12.95;;;5.82;;
76204;SDS011;64986;55.672;37.628;2022-12-05T09:16:10;14.25;;;6.47;;
76204;SDS011;64986;55.672;37.628;2022-12-05T09:18:37;11.80;;;6.13;;
76204;SDS011;64986;55.672;37.628;2022-12-05T09:21:04;15.07;;;6.70;;
76204;SDS011;64986;55.672;37.628;2022-12-05T09:23:34;13.50;;;6.22;;
76204;SDS011;64986;55.672;37.628;2022-12-05T09:25:59;16.23;;;5.78;;
76204;SDS011;64986;55.672;37.628;2022-12-05T09:28:29;13.27;;;4.78;;
76204;SDS011;64986;55.672;37.628;2022-12-05T09:30:56;11.18;;;5.45;;
76204;SDS011;64986;55.672;37.628;2022-12-05T09:33:22;13.10;;;5.80;;
76204;SDS011;64986;55.672;37.628;2022-12-05T09:35:48;16.38;;;6.30;;
76204;SDS011;64986;55.672;37.628;2022-12-05T09:38:13;25.08;;;6.30;;
76204;SDS011;64986;55.672;37.628;2022-12-05T09:40:39;17.88;;;6.55;;
76204;SDS011;64986;55.672;37.628;2022-12-05T09:43:07;14.20;;;5.93;;
76204;SDS011;64986;55.672;37.628;2022-12-05T09:45:53;16.73;;;5.15;;
76204;SDS011;64986;55.672;37.628;2022-12-05T09:48:26;11.98;;;4.80;;
76204;SDS011;64986;55.672;37.628;2022-12-05T09:50:56;11.73;;;5.53;;
76204;SDS011;64986;55.672;37.628;2022-12-05T09:56:05;14.23;;;5.13;;
76204;SDS011;64986;55.672;37.628;2022-12-05T09:58:43;10.52;;;5.15;;
76204;SDS011;64986;55.672;37.628;2022-12-05T10:01:35;12.10;;;4.55;;
76204;SDS011;64986;55.672;37.628;2022-12-05T10:12:34;14.85;;;4.30;;
76204;SDS011;64986;55.672;37.628;2022-12-05T10:18:02;12.95;;;4.53;;
76204;SDS011;64986;55.672;37.628;2022-12-05T10:20:50;9.90;;;4.15;;
76204;SDS011;64986;55.672;37.628;2022-12-05T10:23:22;7.70;;;2.85;;
76204;SDS011;64986;55.672;37.628;2022-12-05T10:25:55;9.02;;;4.82;;
76204;SDS011;64986;55.672;37.628;2022-12-05T10:28:33;9.38;;;4.20;;
76204;SDS011;64986;55.672;37.628;2022-12-05T10:31:08;8.13;;;3.80;;
76204;SDS011;64986;55.672;37.628;2022-12-05T10:33:39;6.93;;;3.92;;
76204;SDS011;64986;55.672;37.628;2022-12-05T10:36:10;10.38;;;4.22;;
76204;SDS011;64986;55.672;37.628;2022-12-05T10:38:37;7.50;;;4.30;;
76204;SDS011;64986;55.672;37.628;2022-12-05T10:41:08;4.95;;;2.85;;
76204;SDS011;64986;55.672;37.628;2022-12-05T10:43:38;14.85;;;4.85;;
76204;SDS011;64986;55.672;37.628;2022-12-05T10:46:06;9.35;;;3.75;;
76204;SDS011;64986;55.672;37.628;2022-12-05T10:48:36;15.60;;;5.07;;
76204;SDS011;64986;55.672;37.628;2022-12-05T10:51:04;11.88;;;4.03;;
76204;SDS011;64986;55.672;37.628;2022-12-05T10:56:33;10.15;;;4.22;;
76204;SDS011;64986;55.672;37.628;2022-12-05T10:59:05;10.75;;;4.10;;
76204;SDS011;64986;55.672;37.628;2022-12-05T11:01:32;11.70;;;5.13;;
76204;SDS011;64986;55.672;37.628;2022-12-05T11:04:00;10.88;;;4.60;;
76204;SDS011;64986;55.672;37.628;2022-12-05T11:06:30;11.13;;;5.20;;
76204;SDS011;64986;55.672;37.628;2022-12-05T11:08:57;11.45;;;4.40;;
76204;SDS011;64986;55.672;37.628;2022-12-05T11:11:28;8.60;;;4.50;;
76204;SDS011;64986;55.672;37.628;2022-12-05T11:13:58;7.80;;;3.10;;
76204;SDS011;64986;55.672;37.628;2022-12-05T11:16:30;16.60;;;4.22;;
76204;SDS011;64986;55.672;37.628;2022-12-05T11:21:49;8.10;;;3.50;;
76204;SDS011;64986;55.672;37.628;2022-12-05T11:24:31;7.82;;;4.57;;
76204;SDS011;64986;55.672;37.628;2022-12-05T11:26:59;9.25;;;4.90;;
76204;SDS011;64986;55.672;37.628;2022-12-05T11:29:42;9.30;;;5.28;;
76204;SDS011;64986;55.672;37.628;2022-12-05T11:32:42;11.45;;;4.63;;
76204;SDS011;64986;55.672;37.628;2022-12-05T11:35:10;11.82;;;6.20;;
76204;SDS011;64986;55.672;37.628;2022-12-05T11:51:49;8.18;;;4.40;;
76204;SDS011;64986;55.672;37.628;2022-12-05T11:57:24;6.28;;;2.97;;
76204;SDS011;64986;55.672;37.628;2022-12-05T12:03:21;8.52;;;3.97;;
76204;SDS011;64986;55.672;37.628;2022-12-05T12:09:01;8.27;;;3.50;;
76204;SDS011;64986;55.672;37.628;2022-12-05T12:11:46;8.20;;;3.22;;
76204;SDS011;64986;55.672;37.628;2022-12-05T12:15:22;11.52;;;4.72;;
76204;SDS011;64986;55.672;37.628;2022-12-05T12:17:35;15.18;;;4.93;;
76204;SDS011;64986;55.672;37.628;2022-12-05T12:28:41;19.20;;;7.38;;
76204;SDS011;64986;55.672;37.628;2022-12-05T12:34:09;14.75;;;5.72;;
76204;SDS011;64986;55.672;37.628;2022-12-05T12:36:52;13.90;;;3.97;;
76204;SDS011;64986;55.672;37.628;2022-12-05T12:39:39;16.50;;;6.65;;
76204;SDS011;64986;55.672;37.628;2022-12-05T12:45:03;10.45;;;4.72;;
76204;SDS011;64986;55.672;37.628;2022-12-05T12:50:31;19.77;;;5.80;;
76204;SDS011;64986;55.672;37.628;2022-12-05T12:55:46;25.48;;;10.00;;
76204;SDS011;64986;55.672;37.628;2022-12-05T12:58:27;38.45;;;11.77;;
76204;SDS011;64986;55.672;37.628;2022-12-05T13:03:50;42.72;;;17.20;;
76204;SDS011;64986;55.672;37.628;2022-12-05T13:07:02;37.47;;;17.92;;
76204;SDS011;64986;55.672;37.628;2022-12-05T13:12:36;31.85;;;12.90;;
76204;SDS011;64986;55.672;37.628;2022-12-05T13:15:06;34.85;;;13.82;;
76204;SDS011;64986;55.672;37.628;2022-12-05T13:17:38;27.05;;;10.77;;
76204;SDS011;64986;55.672;37.628;2022-12-05T13:20:17;25.67;;;10.98;;
76204;SDS011;64986;55.672;37.628;2022-12-05T13:22:47;31.38;;;11.18;;
76204;SDS011;64986;55.672;37.628;2022-12-05T13:25:16;25.20;;;9.30;;
76204;SDS011;64986;55.672;37.628;2022-12-05T13:27:52;24.20;;;9.27;;
76204;SDS011;64986;55.672;37.628;2022-12-05T13:30:25;25.65;;;10.57;;
76204;SDS011;64986;55.672;37.628;2022-12-05T13:32:59;23.58;;;10.40;;
76204;SDS011;64986;55.672;37.628;2022-12-05T13:35:31;19.85;;;8.35;;
76204;SDS011;64986;55.672;37.628;2022-12-05T13:41:05;24.00;;;9.75;;
76204;SDS011;64986;55.672;37.628;2022-12-05T13:43:54;26.00;;;9.43;;
76204;SDS011;64986;55.672;37.628;2022-12-05T13:46:39;21.92;;;9.55;;
76204;SDS011;64986;55.672;37.628;2022-12-05T13:49:14;26.73;;;8.65;;
76204;SDS011;64986;55.672;37.628;2022-12-05T13:51:47;18.52;;;6.47;;
76204;SDS011;64986;55.672;37.628;2022-12-05T13:54:26;16.40;;;6.10;;
76204;SDS011;64986;55.672;37.628;2022-12-05T13:56:54;19.00;;;7.00;;
76204;SDS011;64986;55.672;37.628;2022-12-05T14:07:43;11.38;;;5.32;;
76204;SDS011;64986;55.672;37.628;2022-12-05T14:10:13;18.02;;;5.97;;
76204;SDS011;64986;55.672;37.628;2022-12-05T14:12:56;15.95;;;6.13;;
76204;SDS011;64986;55.672;37.628;2022-12-05T14:15:43;20.58;;;6.55;;
76204;SDS011;64986;55.672;37.628;2022-12-05T14:23:26;18.63;;;6.63;;
76204;SDS011;64986;55.672;37.628;2022-12-05T14:26:14;27.90;;;7.45;;
76204;SDS011;64986;55.672;37.628;2022-12-05T14:29:15;13.18;;;5.40;;
76204;SDS011;64986;55.672;37.628;2022-12-05T14:34:26;18.17;;;5.93;;
76204;SDS011;64986;55.672;37.628;2022-12-05T14:37:05;16.05;;;5.43;;
76204;SDS011;64986;55.672;37.628;2022-12-05T14:39:45;22.50;;;8.65;;
76204;SDS011;64986;55.672;37.628;2022-12-05T14:42:31;14.38;;;6.70;;
76204;SDS011;64986;55.672;37.628;2022-12-05T14:45:20;21.98;;;7.93;;
76204;SDS011;64986;55.672;37.628;2022-12-05T14:50:53;11.70;;;4.55;;
76204;SDS011;64986;55.672;37.628;2022-12-05T14:56:19;18.88;;;6.43;;
76204;SDS011;64986;55.672;37.628;2022-12-05T15:07:01;10.52;;;3.90;;
76204;SDS011;64986;55.672;37.628;2022-12-05T15:12:01;17.17;;;7.47;;
76204;SDS011;64986;55.672;37.628;2022-12-05T15:14:31;18.38;;;4.95;;
76204;SDS011;64986;55.672;37.628;2022-12-05T15:17:03;12.93;;;5.22;;
76204;SDS011;64986;55.672;37.628;2022-12-05T15:19:43;10.48;;;4.53;;
76204;SDS011;64986;55.672;37.628;2022-12-05T15:22:13;11.15;;;4.90;;
76204;SDS011;64986;55.672;37.628;2022-12-05T15:24:40;15.60;;;5.93;;
76204;SDS011;64986;55.672;37.628;2022-12-05T15:27:08;12.30;;;4.45;;
76204;SDS011;64986;55.672;37.628;2022-12-05T15:29:38;11.38;;;4.80;;
76204;SDS011;64986;55.672;37.628;2022-12-05T15:32:13;15.27;;;6.55;;
76204;SDS011;64986;55.672;37.628;2022-12-05T15:35:00;15.48;;;5.07;;
76204;SDS011;64986;55.672;37.628;2022-12-05T15:37:44;9.65;;;3.72;;
76204;SDS011;64986;55.672;37.628;2022-12-05T15:40:15;15.15;;;4.82;;
76204;SDS011;64986;55.672;37.628;2022-12-05T15:42:46;10.70;;;5.30;;
76204;SDS011;64986;55.672;37.628;2022-12-05T15:48:24;11.07;;;4.78;;
76204;SDS011;64986;55.672;37.628;2022-12-05T15:50:43;10.20;;;3.88;;
76204;SDS011;64986;55.672;37.628;2022-12-05T15:55:43;13.88;;;4.28;;
76204;SDS011;64986;55.672;37.628;2022-12-05T15:58:19;15.73;;;6.45;;
76204;SDS011;64986;55.672;37.628;2022-12-05T16:01:05;14.45;;;4.35;;
76204;SDS011;64986;55.672;37.628;2022-12-05T16:09:04;20.17;;;5.22;;
76204;SDS011;64986;55.672;37.628;2022-12-05T16:11:32;13.80;;;4.60;;
76204;SDS011;64986;55.672;37.628;2022-12-05T16:14:01;13.15;;;3.60;;
76204;SDS011;64986;55.672;37.628;2022-12-05T16:16:30;10.98;;;4.10;;
76204;SDS011;64986;55.672;37.628;2022-12-05T16:19:02;11.07;;;4.28;;
76204;SDS011;64986;55.672;37.628;2022-12-05T16:22:01;16.20;;;5.03;;
76204;SDS011;64986;55.672;37.628;2022-12-05T16:24:37;12.35;;;5.57;;
76204;SDS011;64986;55.672;37.628;2022-12-05T16:27:12;17.17;;;5.05;;
76204;SDS011;64986;55.672;37.628;2022-12-05T16:32:40;11.35;;;4.63;;
76204;SDS011;64986;55.672;37.628;2022-12-05T16:38:01;14.48;;;5.03;;
76204;SDS011;64986;55.672;37.628;2022-12-05T16:40:38;13.57;;;5.05;;
76204;SDS011;64986;55.672;37.628;2022-12-05T16:45:55;14.95;;;4.75;;
76204;SDS011;64986;55.672;37.628;2022-12-05T16:48:26;17.83;;;5.13;;
76204;SDS011;64986;55.672;37.628;2022-12-05T16:53:35;16.77;;;5.78;;
76204;SDS011;64986;55.672;37.628;2022-12-05T16:56:03;11.98;;;4.38;;
76204;SDS011;64986;55.672;37.628;2022-12-05T16:58:30;9.70;;;4.72;;
76204;SDS011;64986;55.672;37.628;2022-12-05T17:01:00;12.68;;;4.28;;
76204;SDS011;64986;55.672;37.628;2022-12-05T17:03:28;11.55;;;4.78;;
76204;SDS011;64986;55.672;37.628;2022-12-05T17:05:55;14.43;;;4.90;;
76204;SDS011;64986;55.672;37.628;2022-12-05T17:08:21;12.98;;;5.55;;
76204;SDS011;64986;55.672;37.628;2022-12-05T17:10:47;10.40;;;4.28;;
76204;SDS011;64986;55.672;37.628;2022-12-05T17:13:13;10.23;;;3.58;;
76204;SDS011;64986;55.672;37.628;2022-12-05T17:15:40;11.63;;;4.72;;
76204;SDS011;64986;55.672;37.628;2022-12-05T17:18:09;18.05;;;6.97;;
76204;SDS011;64986;55.672;37.628;2022-12-05T17:20:41;19.52;;;4.82;;
76204;SDS011;64986;55.672;37.628;2022-12-05T17:23:12;11.18;;;4.55;;
76204;SDS011;64986;55.672;37.628;2022-12-05T17:25:40;10.50;;;4.65;;
76204;SDS011;64986;55.672;37.628;2022-12-05T17:28:08;7.40;;;3.97;;
76204;SDS011;64986;55.672;37.628;2022-12-05T17:30:34;15.57;;;4.35;;
76204;SDS011;64986;55.672;37.628;2022-12-05T17:33:02;14.10;;;5.07;;
76204;SDS011;64986;55.672;37.628;2022-12-05T17:35:28;9.65;;;3.45;;
76204;SDS011;64986;55.672;37.628;2022-12-05T17:37:54;15.18;;;5.45;;
76204;SDS011;64986;55.672;37.628;2022-12-05T17:40:20;9.65;;;4.03;;
76204;SDS011;64986;55.672;37.628;2022-12-05T17:42:46;5.38;;;2.80;;